Orel 5 — EMFH — position and weather

sailwx.info

Track history (hours):
 
Tides and Currents Weather Stations Pressure Air Temp Water Temp Dewpoint Dewpoint Depression Visibility Wind Speed Wind Dir Waves Ship Positions

Orel 5

Last reported at 2016-Aug-24 21:10 UTC. Time now 2016-Aug-31 02:17 UTC.
Position N 40°56' E 028°54'.

Length 108 m; draft 3.3 m.

Type: Cargo ship. MMSI: 272059000.

Date/timePositionNaut miles runAvg speedWind from/ knotsBaromVisibWave heightAir tempDewpointWater temp
2016-Aug-24 21:10N 40°56' E 028°54'2 3.1
2016-Aug-24 20:25N 40°58' E 028°55'  
2016-Aug-22 08:33N 46°01' E 030°31'15 7.6
2016-Aug-22 06:32N 46°12' E 030°46'8 7.7
2016-Aug-22 05:33N 46°17' E 030°54'7 7.1
2016-Aug-22 04:34N 46°24' E 030°56'8 7.6
2016-Aug-22 03:33N 46°32' E 030°56'7 6.8
2016-Aug-22 02:33N 46°34' E 031°05'7 7.0
2016-Aug-22 01:33N 46°35' E 031°15'8 7.6
2016-Aug-22 00:32N 46°35' E 031°26'15 7.5
2016-Aug-21 22:33N 46°36' E 031°48'7 7.1
2016-Aug-21 21:33N 46°34' E 031°58'145 3.8
2016-Aug-20 07:33N 47°40' E 035°07'7 7.3
2016-Aug-20 06:33N 47°47' E 035°10'2 1.6
2016-Aug-20 05:33N 47°49' E 035°09'1 1.1
2016-Aug-20 04:33N 47°49' E 035°08'3 2.9
2016-Aug-20 03:33N 47°52' E 035°05'1 1.4
2016-Aug-20 02:33N 47°53' E 035°06'0 0.2
2016-Aug-20 01:33N 47°53' E 035°06'0 0.0
2016-Aug-20 00:33N 47°53' E 035°06'0 0.0
2016-Aug-19 23:33N 47°53' E 035°06'0 0.0
2016-Aug-19 22:33N 47°53' E 035°06'0 0.1
2016-Aug-19 21:33N 47°53' E 035°06'5 5.2
2016-Aug-19 20:33N 47°59' E 035°07'  
Track history (hours):
 
Tides and Currents Weather Stations Pressure Air Temp Water Temp Dewpoint Dewpoint Depression Visibility Wind Speed Wind Dir Waves Ship Positions

Orel 5

Last reported at 2016-Aug-24 21:10 UTC. Time now 2016-Aug-31 02:17 UTC.
Position N 40°56' E 028°54'.

Length 108 m; draft 3.3 m.

Type: Cargo ship. MMSI: 272059000.

Date/timePositionNaut miles runAvg speedWind from/ knotsBaromVisibWave heightAir tempDewpointWater temp
2016-Aug-24 21:10N 40°56' E 028°54'2 3.1
2016-Aug-24 20:25N 40°58' E 028°55'  
2016-Aug-22 08:33N 46°01' E 030°31'15 7.6
2016-Aug-22 06:32N 46°12' E 030°46'8 7.7
2016-Aug-22 05:33N 46°17' E 030°54'7 7.1
2016-Aug-22 04:34N 46°24' E 030°56'8 7.6
2016-Aug-22 03:33N 46°32' E 030°56'7 6.8
2016-Aug-22 02:33N 46°34' E 031°05'7 7.0
2016-Aug-22 01:33N 46°35' E 031°15'8 7.6
2016-Aug-22 00:32N 46°35' E 031°26'15 7.5
2016-Aug-21 22:33N 46°36' E 031°48'7 7.1
2016-Aug-21 21:33N 46°34' E 031°58'145 3.8
2016-Aug-20 07:33N 47°40' E 035°07'7 7.3
2016-Aug-20 06:33N 47°47' E 035°10'2 1.6
2016-Aug-20 05:33N 47°49' E 035°09'1 1.1
2016-Aug-20 04:33N 47°49' E 035°08'3 2.9
2016-Aug-20 03:33N 47°52' E 035°05'1 1.4
2016-Aug-20 02:33N 47°53' E 035°06'0 0.2
2016-Aug-20 01:33N 47°53' E 035°06'0 0.0
2016-Aug-20 00:33N 47°53' E 035°06'0 0.0
2016-Aug-19 23:33N 47°53' E 035°06'0 0.0
2016-Aug-19 22:33N 47°53' E 035°06'0 0.1
2016-Aug-19 21:33N 47°53' E 035°06'5 5.2
2016-Aug-19 20:33N 47°59' E 035°07'  

Dump ship's entire track history